sensor_id;sensor_type;location;lat;lon;timestamp;temperature;humidity
13898;DHT22;7019;50.766;4.474;2023-03-15T00:01:45;2.90;99.90
13898;DHT22;7019;50.766;4.474;2023-03-15T00:04:12;2.90;99.90
13898;DHT22;7019;50.766;4.474;2023-03-15T00:06:39;2.90;99.90
13898;DHT22;7019;50.766;4.474;2023-03-15T00:09:06;2.90;99.90
13898;DHT22;7019;50.766;4.474;2023-03-15T00:11:35;3.00;99.90
13898;DHT22;7019;50.766;4.474;2023-03-15T00:14:02;3.00;99.90
13898;DHT22;7019;50.766;4.474;2023-03-15T00:16:30;3.00;99.90
13898;DHT22;7019;50.766;4.474;2023-03-15T00:18:57;3.10;99.90
13898;DHT22;7019;50.766;4.474;2023-03-15T00:21:24;3.00;99.90
13898;DHT22;7019;50.766;4.474;2023-03-15T00:23:54;3.10;99.90
13898;DHT22;7019;50.766;4.474;2023-03-15T00:26:21;3.10;99.90
13898;DHT22;7019;50.766;4.474;2023-03-15T00:28:50;3.10;99.90
13898;DHT22;7019;50.766;4.474;2023-03-15T00:31:18;3.10;99.90
13898;DHT22;7019;50.766;4.474;2023-03-15T00:33:46;3.20;99.90
13898;DHT22;7019;50.766;4.474;2023-03-15T00:36:14;3.20;99.90
13898;DHT22;7019;50.766;4.474;2023-03-15T00:38:41;3.20;99.90
13898;DHT22;7019;50.766;4.474;2023-03-15T00:41:11;3.20;99.90
13898;DHT22;7019;50.766;4.474;2023-03-15T00:43:39;3.30;99.90
13898;DHT22;7019;50.766;4.474;2023-03-15T00:46:07;3.30;99.90
13898;DHT22;7019;50.766;4.474;2023-03-15T00:48:34;3.30;99.90
13898;DHT22;7019;50.766;4.474;2023-03-15T00:51:04;3.20;99.90
13898;DHT22;7019;50.766;4.474;2023-03-15T00:53:31;3.10;99.90
13898;DHT22;7019;50.766;4.474;2023-03-15T00:56:03;2.90;99.90
13898;DHT22;7019;50.766;4.474;2023-03-15T00:58:30;2.90;99.90
13898;DHT22;7019;50.766;4.474;2023-03-15T01:00:57;2.80;99.90
13898;DHT22;7019;50.766;4.474;2023-03-15T01:03:26;2.70;99.90
13898;DHT22;7019;50.766;4.474;2023-03-15T01:05:54;2.60;99.90
13898;DHT22;7019;50.766;4.474;2023-03-15T01:08:21;2.50;99.90
13898;DHT22;7019;50.766;4.474;2023-03-15T01:10:49;2.50;99.90
13898;DHT22;7019;50.766;4.474;2023-03-15T01:13:16;2.50;99.90
13898;DHT22;7019;50.766;4.474;2023-03-15T01:15:45;2.40;99.90
13898;DHT22;7019;50.766;4.474;2023-03-15T01:18:12;2.40;99.90
13898;DHT22;7019;50.766;4.474;2023-03-15T01:20:43;2.30;99.90
13898;DHT22;7019;50.766;4.474;2023-03-15T01:23:10;2.30;99.90
13898;DHT22;7019;50.766;4.474;2023-03-15T01:25:38;2.30;99.90
13898;DHT22;7019;50.766;4.474;2023-03-15T01:28:05;2.30;99.90
13898;DHT22;7019;50.766;4.474;2023-03-15T01:30:32;2.30;99.90
13898;DHT22;7019;50.766;4.474;2023-03-15T01:33:00;2.30;99.90
13898;DHT22;7019;50.766;4.474;2023-03-15T01:35:27;2.30;99.90
13898;DHT22;7019;50.766;4.474;2023-03-15T01:37:55;2.30;99.90
13898;DHT22;7019;50.766;4.474;2023-03-15T01:40:22;2.30;99.90
13898;DHT22;7019;50.766;4.474;2023-03-15T01:43:10;2.30;99.90
13898;DHT22;7019;50.766;4.474;2023-03-15T01:45:56;2.40;99.90
13898;DHT22;7019;50.766;4.474;2023-03-15T01:48:28;2.40;99.90
13898;DHT22;7019;50.766;4.474;2023-03-15T01:50:59;2.50;99.90
13898;DHT22;7019;50.766;4.474;2023-03-15T01:53:29;2.50;99.90
13898;DHT22;7019;50.766;4.474;2023-03-15T01:55:58;2.50;99.90
13898;DHT22;7019;50.766;4.474;2023-03-15T01:58:26;2.60;99.90
13898;DHT22;7019;50.766;4.474;2023-03-15T02:00:54;2.60;99.90
13898;DHT22;7019;50.766;4.474;2023-03-15T02:03:23;2.60;99.90
13898;DHT22;7019;50.766;4.474;2023-03-15T02:05:55;2.60;99.90
13898;DHT22;7019;50.766;4.474;2023-03-15T02:08:26;2.60;99.90
13898;DHT22;7019;50.766;4.474;2023-03-15T02:10:56;2.70;99.90
13898;DHT22;7019;50.766;4.474;2023-03-15T02:13:25;2.70;99.90
13898;DHT22;7019;50.766;4.474;2023-03-15T02:15:55;2.70;99.90
13898;DHT22;7019;50.766;4.474;2023-03-15T02:18:23;2.80;99.90
13898;DHT22;7019;50.766;4.474;2023-03-15T02:20:55;2.80;99.90
13898;DHT22;7019;50.766;4.474;2023-03-15T02:23:25;2.80;99.90
13898;DHT22;7019;50.766;4.474;2023-03-15T02:26:00;2.90;99.90
13898;DHT22;7019;50.766;4.474;2023-03-15T02:28:34;2.90;99.90
13898;DHT22;7019;50.766;4.474;2023-03-15T02:31:01;2.90;99.90
13898;DHT22;7019;50.766;4.474;2023-03-15T02:33:34;3.00;99.90
13898;DHT22;7019;50.766;4.474;2023-03-15T02:36:09;3.00;99.90
13898;DHT22;7019;50.766;4.474;2023-03-15T02:38:36;3.00;99.90
13898;DHT22;7019;50.766;4.474;2023-03-15T02:41:04;3.00;99.90
13898;DHT22;7019;50.766;4.474;2023-03-15T02:43:33;2.90;99.90
13898;DHT22;7019;50.766;4.474;2023-03-15T02:46:01;3.00;99.90
13898;DHT22;7019;50.766;4.474;2023-03-15T02:48:31;3.00;99.90
13898;DHT22;7019;50.766;4.474;2023-03-15T02:50:58;3.00;99.90
13898;DHT22;7019;50.766;4.474;2023-03-15T02:53:28;3.10;99.90
13898;DHT22;7019;50.766;4.474;2023-03-15T02:55:56;3.10;99.90
13898;DHT22;7019;50.766;4.474;2023-03-15T02:58:23;3.10;99.90
13898;DHT22;7019;50.766;4.474;2023-03-15T03:00:52;3.10;99.90
13898;DHT22;7019;50.766;4.474;2023-03-15T03:03:20;3.10;99.90
13898;DHT22;7019;50.766;4.474;2023-03-15T03:05:47;3.10;99.90
13898;DHT22;7019;50.766;4.474;2023-03-15T03:08:14;3.10;99.90
13898;DHT22;7019;50.766;4.474;2023-03-15T03:10:41;3.10;99.90
13898;DHT22;7019;50.766;4.474;2023-03-15T03:13:09;3.10;99.90
13898;DHT22;7019;50.766;4.474;2023-03-15T03:15:36;3.00;99.90
13898;DHT22;7019;50.766;4.474;2023-03-15T03:18:05;2.90;99.90
13898;DHT22;7019;50.766;4.474;2023-03-15T03:20:32;2.80;99.90
13898;DHT22;7019;50.766;4.474;2023-03-15T03:22:59;2.80;99.90
13898;DHT22;7019;50.766;4.474;2023-03-15T03:25:30;2.80;99.90
13898;DHT22;7019;50.766;4.474;2023-03-15T03:27:57;2.70;99.90
13898;DHT22;7019;50.766;4.474;2023-03-15T03:30:29;2.70;99.90
13898;DHT22;7019;50.766;4.474;2023-03-15T03:32:57;2.70;99.90
13898;DHT22;7019;50.766;4.474;2023-03-15T03:35:25;2.60;99.90
13898;DHT22;7019;50.766;4.474;2023-03-15T03:37:52;2.60;99.90
13898;DHT22;7019;50.766;4.474;2023-03-15T03:40:19;2.60;99.90
13898;DHT22;7019;50.766;4.474;2023-03-15T03:42:46;2.60;99.90
13898;DHT22;7019;50.766;4.474;2023-03-15T03:45:14;2.50;99.90
13898;DHT22;7019;50.766;4.474;2023-03-15T03:47:41;2.50;99.90
13898;DHT22;7019;50.766;4.474;2023-03-15T03:50:10;2.50;99.90
13898;DHT22;7019;50.766;4.474;2023-03-15T03:52:38;2.60;99.90
13898;DHT22;7019;50.766;4.474;2023-03-15T03:55:09;2.60;99.90
13898;DHT22;7019;50.766;4.474;2023-03-15T03:57:39;2.60;99.90
13898;DHT22;7019;50.766;4.474;2023-03-15T04:00:16;2.70;99.90
13898;DHT22;7019;50.766;4.474;2023-03-15T04:02:43;2.70;99.90
13898;DHT22;7019;50.766;4.474;2023-03-15T04:05:10;2.70;99.90
13898;DHT22;7019;50.766;4.474;2023-03-15T04:07:39;2.70;99.90
13898;DHT22;7019;50.766;4.474;2023-03-15T04:10:07;2.70;99.90
13898;DHT22;7019;50.766;4.474;2023-03-15T04:12:34;2.70;99.90
13898;DHT22;7019;50.766;4.474;2023-03-15T04:15:01;2.60;99.90
13898;DHT22;7019;50.766;4.474;2023-03-15T04:17:28;2.60;99.90
13898;DHT22;7019;50.766;4.474;2023-03-15T04:19:55;2.60;99.90
13898;DHT22;7019;50.766;4.474;2023-03-15T04:22:24;2.60;99.90
13898;DHT22;7019;50.766;4.474;2023-03-15T04:24:52;2.60;99.90
13898;DHT22;7019;50.766;4.474;2023-03-15T04:27:19;2.60;99.90
13898;DHT22;7019;50.766;4.474;2023-03-15T04:29:46;2.60;99.90
13898;DHT22;7019;50.766;4.474;2023-03-15T04:32:13;2.60;99.90
13898;DHT22;7019;50.766;4.474;2023-03-15T04:34:42;2.60;99.90
13898;DHT22;7019;50.766;4.474;2023-03-15T04:37:09;2.70;99.90
13898;DHT22;7019;50.766;4.474;2023-03-15T04:39:36;2.70;99.90
13898;DHT22;7019;50.766;4.474;2023-03-15T04:42:09;2.70;99.90
13898;DHT22;7019;50.766;4.474;2023-03-15T04:44:36;2.70;99.90
13898;DHT22;7019;50.766;4.474;2023-03-15T04:47:03;2.70;99.90
13898;DHT22;7019;50.766;4.474;2023-03-15T04:49:30;2.80;99.90
13898;DHT22;7019;50.766;4.474;2023-03-15T04:51:57;2.80;99.90
13898;DHT22;7019;50.766;4.474;2023-03-15T04:54:24;2.80;99.90
13898;DHT22;7019;50.766;4.474;2023-03-15T04:56:51;2.90;99.90
13898;DHT22;7019;50.766;4.474;2023-03-15T04:59:20;2.90;99.90
13898;DHT22;7019;50.766;4.474;2023-03-15T05:01:47;2.90;99.90
13898;DHT22;7019;50.766;4.474;2023-03-15T05:04:14;2.90;99.90
13898;DHT22;7019;50.766;4.474;2023-03-15T05:06:41;2.90;99.90
13898;DHT22;7019;50.766;4.474;2023-03-15T05:09:09;2.90;99.90
13898;DHT22;7019;50.766;4.474;2023-03-15T05:11:44;2.80;99.90
13898;DHT22;7019;50.766;4.474;2023-03-15T05:14:11;2.70;99.90
13898;DHT22;7019;50.766;4.474;2023-03-15T05:16:40;2.60;99.90
13898;DHT22;7019;50.766;4.474;2023-03-15T05:19:08;2.40;99.90
13898;DHT22;7019;50.766;4.474;2023-03-15T05:21:36;2.30;99.90
13898;DHT22;7019;50.766;4.474;2023-03-15T05:24:03;2.20;99.90
13898;DHT22;7019;50.766;4.474;2023-03-15T05:26:30;2.00;99.90
13898;DHT22;7019;50.766;4.474;2023-03-15T05:28:59;1.90;99.90
13898;DHT22;7019;50.766;4.474;2023-03-15T05:31:26;1.80;99.90
13898;DHT22;7019;50.766;4.474;2023-03-15T05:33:55;1.70;99.90
13898;DHT22;7019;50.766;4.474;2023-03-15T05:36:22;1.60;99.90
13898;DHT22;7019;50.766;4.474;2023-03-15T05:38:49;1.60;99.90
13898;DHT22;7019;50.766;4.474;2023-03-15T05:41:17;1.60;99.90
13898;DHT22;7019;50.766;4.474;2023-03-15T05:43:44;1.50;99.90
13898;DHT22;7019;50.766;4.474;2023-03-15T05:46:11;1.50;99.90
13898;DHT22;7019;50.766;4.474;2023-03-15T05:48:38;1.50;99.90
13898;DHT22;7019;50.766;4.474;2023-03-15T05:51:07;1.50;99.90
13898;DHT22;7019;50.766;4.474;2023-03-15T05:53:34;1.50;99.90
13898;DHT22;7019;50.766;4.474;2023-03-15T05:56:01;1.40;99.90
13898;DHT22;7019;50.766;4.474;2023-03-15T05:58:28;1.40;99.90
13898;DHT22;7019;50.766;4.474;2023-03-15T06:00:55;1.30;99.90
13898;DHT22;7019;50.766;4.474;2023-03-15T06:03:23;1.30;99.90
13898;DHT22;7019;50.766;4.474;2023-03-15T06:05:50;1.30;99.90
13898;DHT22;7019;50.766;4.474;2023-03-15T06:08:18;1.30;99.90
13898;DHT22;7019;50.766;4.474;2023-03-15T06:10:45;1.40;99.90
13898;DHT22;7019;50.766;4.474;2023-03-15T06:13:12;1.40;99.90
13898;DHT22;7019;50.766;4.474;2023-03-15T06:15:40;1.60;99.90
13898;DHT22;7019;50.766;4.474;2023-03-15T06:18:07;1.60;99.90
13898;DHT22;7019;50.766;4.474;2023-03-15T06:20:34;1.70;99.90
13898;DHT22;7019;50.766;4.474;2023-03-15T06:23:02;1.70;99.90
13898;DHT22;7019;50.766;4.474;2023-03-15T06:25:30;1.80;99.90
13898;DHT22;7019;50.766;4.474;2023-03-15T06:27:57;1.70;99.90
13898;DHT22;7019;50.766;4.474;2023-03-15T06:30:26;1.70;99.90
13898;DHT22;7019;50.766;4.474;2023-03-15T06:32:53;1.70;99.90
13898;DHT22;7019;50.766;4.474;2023-03-15T06:35:21;1.60;99.90
13898;DHT22;7019;50.766;4.474;2023-03-15T06:37:48;1.60;99.90
13898;DHT22;7019;50.766;4.474;2023-03-15T06:40:17;1.80;99.90
13898;DHT22;7019;50.766;4.474;2023-03-15T06:42:46;2.20;99.90
13898;DHT22;7019;50.766;4.474;2023-03-15T06:45:13;2.60;99.90
13898;DHT22;7019;50.766;4.474;2023-03-15T06:47:41;3.00;99.90
13898;DHT22;7019;50.766;4.474;2023-03-15T06:50:09;3.50;99.90
13898;DHT22;7019;50.766;4.474;2023-03-15T06:52:36;3.70;99.90
13898;DHT22;7019;50.766;4.474;2023-03-15T06:55:05;3.70;99.90
13898;DHT22;7019;50.766;4.474;2023-03-15T06:57:32;3.70;99.90
13898;DHT22;7019;50.766;4.474;2023-03-15T07:00:00;3.90;99.90
13898;DHT22;7019;50.766;4.474;2023-03-15T07:02:31;4.20;99.90
13898;DHT22;7019;50.766;4.474;2023-03-15T07:05:02;4.70;99.90
13898;DHT22;7019;50.766;4.474;2023-03-15T07:07:29;5.10;99.90
13898;DHT22;7019;50.766;4.474;2023-03-15T07:09:57;5.50;99.90
13898;DHT22;7019;50.766;4.474;2023-03-15T07:12:24;5.90;99.90
13898;DHT22;7019;50.766;4.474;2023-03-15T07:14:51;6.60;99.90
13898;DHT22;7019;50.766;4.474;2023-03-15T07:17:20;7.00;99.90
13898;DHT22;7019;50.766;4.474;2023-03-15T07:19:46;7.30;99.90
13898;DHT22;7019;50.766;4.474;2023-03-15T07:22:14;7.20;99.90
13898;DHT22;7019;50.766;4.474;2023-03-15T07:24:41;7.60;99.90
13898;DHT22;7019;50.766;4.474;2023-03-15T07:27:11;8.00;99.90
13898;DHT22;7019;50.766;4.474;2023-03-15T07:29:38;8.30;99.90
13898;DHT22;7019;50.766;4.474;2023-03-15T07:32:06;8.70;99.90
13898;DHT22;7019;50.766;4.474;2023-03-15T07:34:34;9.20;99.90
13898;DHT22;7019;50.766;4.474;2023-03-15T07:37:01;9.20;99.90
13898;DHT22;7019;50.766;4.474;2023-03-15T07:39:28;9.00;99.90
13898;DHT22;7019;50.766;4.474;2023-03-15T07:41:57;8.80;99.90
13898;DHT22;7019;50.766;4.474;2023-03-15T07:44:24;8.60;99.90
13898;DHT22;7019;50.766;4.474;2023-03-15T07:46:51;8.30;99.90
13898;DHT22;7019;50.766;4.474;2023-03-15T07:49:19;7.90;99.90
13898;DHT22;7019;50.766;4.474;2023-03-15T07:51:48;7.60;99.90
13898;DHT22;7019;50.766;4.474;2023-03-15T07:54:15;7.30;99.90
13898;DHT22;7019;50.766;4.474;2023-03-15T07:56:44;6.60;99.90
13898;DHT22;7019;50.766;4.474;2023-03-15T07:59:11;6.50;99.90
13898;DHT22;7019;50.766;4.474;2023-03-15T08:01:38;6.40;99.90
13898;DHT22;7019;50.766;4.474;2023-03-15T08:04:05;6.30;99.90
13898;DHT22;7019;50.766;4.474;2023-03-15T08:06:32;6.10;99.90
13898;DHT22;7019;50.766;4.474;2023-03-15T08:09:00;5.90;99.90
13898;DHT22;7019;50.766;4.474;2023-03-15T08:11:30;5.80;99.90
13898;DHT22;7019;50.766;4.474;2023-03-15T08:13:57;6.00;99.90
13898;DHT22;7019;50.766;4.474;2023-03-15T08:16:24;6.10;99.90
13898;DHT22;7019;50.766;4.474;2023-03-15T08:18:51;6.50;99.90
13898;DHT22;7019;50.766;4.474;2023-03-15T08:21:18;6.60;99.90
13898;DHT22;7019;50.766;4.474;2023-03-15T08:23:46;6.60;99.90
13898;DHT22;7019;50.766;4.474;2023-03-15T08:26:14;6.70;99.90
13898;DHT22;7019;50.766;4.474;2023-03-15T08:28:41;6.90;99.90
13898;DHT22;7019;50.766;4.474;2023-03-15T08:31:08;7.10;99.90
13898;DHT22;7019;50.766;4.474;2023-03-15T08:33:38;7.20;99.90
13898;DHT22;7019;50.766;4.474;2023-03-15T08:36:06;7.40;99.90
13898;DHT22;7019;50.766;4.474;2023-03-15T08:38:33;7.30;99.90
13898;DHT22;7019;50.766;4.474;2023-03-15T08:41:01;7.10;99.90
13898;DHT22;7019;50.766;4.474;2023-03-15T08:43:29;6.90;99.90
13898;DHT22;7019;50.766;4.474;2023-03-15T08:45:56;7.10;99.90
13898;DHT22;7019;50.766;4.474;2023-03-15T08:48:24;7.50;99.90
13898;DHT22;7019;50.766;4.474;2023-03-15T08:50:51;7.80;99.90
13898;DHT22;7019;50.766;4.474;2023-03-15T08:53:18;7.90;99.90
13898;DHT22;7019;50.766;4.474;2023-03-15T08:55:46;7.80;99.90
13898;DHT22;7019;50.766;4.474;2023-03-15T08:58:14;7.60;99.90
13898;DHT22;7019;50.766;4.474;2023-03-15T09:00:42;7.30;99.90
13898;DHT22;7019;50.766;4.474;2023-03-15T09:03:09;7.10;99.90
13898;DHT22;7019;50.766;4.474;2023-03-15T09:05:36;6.70;99.90
13898;DHT22;7019;50.766;4.474;2023-03-15T09:08:04;6.50;99.90
13898;DHT22;7019;50.766;4.474;2023-03-15T09:10:31;6.20;99.90
13898;DHT22;7019;50.766;4.474;2023-03-15T09:12:59;6.00;99.90
13898;DHT22;7019;50.766;4.474;2023-03-15T09:15:26;6.00;99.90
13898;DHT22;7019;50.766;4.474;2023-03-15T09:17:54;6.00;99.90
13898;DHT22;7019;50.766;4.474;2023-03-15T09:20:22;6.10;99.90
13898;DHT22;7019;50.766;4.474;2023-03-15T09:22:53;6.20;99.90
13898;DHT22;7019;50.766;4.474;2023-03-15T09:25:21;6.60;99.90
13898;DHT22;7019;50.766;4.474;2023-03-15T09:27:49;6.90;99.90
13898;DHT22;7019;50.766;4.474;2023-03-15T09:30:17;7.30;99.90
13898;DHT22;7019;50.766;4.474;2023-03-15T09:32:45;7.70;99.90
13898;DHT22;7019;50.766;4.474;2023-03-15T09:35:15;8.10;99.90
13898;DHT22;7019;50.766;4.474;2023-03-15T09:37:42;8.40;99.90
13898;DHT22;7019;50.766;4.474;2023-03-15T09:40:16;8.60;99.90
13898;DHT22;7019;50.766;4.474;2023-03-15T09:42:58;8.30;99.90
13898;DHT22;7019;50.766;4.474;2023-03-15T09:45:34;8.00;99.90
13898;DHT22;7019;50.766;4.474;2023-03-15T09:48:09;7.70;99.90
13898;DHT22;7019;50.766;4.474;2023-03-15T09:50:42;7.40;99.90
13898;DHT22;7019;50.766;4.474;2023-03-15T09:53:13;7.30;99.90
13898;DHT22;7019;50.766;4.474;2023-03-15T09:55:44;7.10;99.90
13898;DHT22;7019;50.766;4.474;2023-03-15T09:58:14;6.90;99.90
13898;DHT22;7019;50.766;4.474;2023-03-15T10:00:45;6.80;99.90
13898;DHT22;7019;50.766;4.474;2023-03-15T10:03:17;6.70;99.90
13898;DHT22;7019;50.766;4.474;2023-03-15T10:05:51;6.60;99.90
13898;DHT22;7019;50.766;4.474;2023-03-15T10:08:20;6.60;99.90
13898;DHT22;7019;50.766;4.474;2023-03-15T10:10:51;6.60;99.90
13898;DHT22;7019;50.766;4.474;2023-03-15T10:13:32;7.10;99.90
13898;DHT22;7019;50.766;4.474;2023-03-15T10:16:16;7.90;99.90
13898;DHT22;7019;50.766;4.474;2023-03-15T10:18:53;8.80;99.90
13898;DHT22;7019;50.766;4.474;2023-03-15T10:21:31;10.00;99.90
13898;DHT22;7019;50.766;4.474;2023-03-15T10:24:01;10.80;99.90
13898;DHT22;7019;50.766;4.474;2023-03-15T10:26:36;11.10;99.90
13898;DHT22;7019;50.766;4.474;2023-03-15T10:29:12;11.10;99.90
13898;DHT22;7019;50.766;4.474;2023-03-15T10:31:43;11.10;99.90
13898;DHT22;7019;50.766;4.474;2023-03-15T10:34:13;11.20;99.90
13898;DHT22;7019;50.766;4.474;2023-03-15T10:36:46;10.40;99.90
13898;DHT22;7019;50.766;4.474;2023-03-15T10:39:14;9.70;99.90
13898;DHT22;7019;50.766;4.474;2023-03-15T10:41:42;9.00;99.90
13898;DHT22;7019;50.766;4.474;2023-03-15T10:44:13;8.20;99.90
13898;DHT22;7019;50.766;4.474;2023-03-15T10:46:40;8.20;99.90
13898;DHT22;7019;50.766;4.474;2023-03-15T10:49:09;8.10;99.90
13898;DHT22;7019;50.766;4.474;2023-03-15T10:51:39;8.10;99.90
13898;DHT22;7019;50.766;4.474;2023-03-15T10:54:14;8.40;99.90
13898;DHT22;7019;50.766;4.474;2023-03-15T10:56:45;8.60;99.90
13898;DHT22;7019;50.766;4.474;2023-03-15T10:59:15;8.50;99.90
13898;DHT22;7019;50.766;4.474;2023-03-15T11:01:46;8.30;99.90
13898;DHT22;7019;50.766;4.474;2023-03-15T11:04:16;8.10;99.90
13898;DHT22;7019;50.766;4.474;2023-03-15T11:06:46;8.10;99.90
13898;DHT22;7019;50.766;4.474;2023-03-15T11:09:16;7.90;99.90
13898;DHT22;7019;50.766;4.474;2023-03-15T11:11:52;7.80;99.90
13898;DHT22;7019;50.766;4.474;2023-03-15T11:14:19;7.60;99.90
13898;DHT22;7019;50.766;4.474;2023-03-15T11:16:49;7.40;99.90
13898;DHT22;7019;50.766;4.474;2023-03-15T11:19:18;7.40;99.90
13898;DHT22;7019;50.766;4.474;2023-03-15T11:21:49;7.30;99.90
13898;DHT22;7019;50.766;4.474;2023-03-15T11:24:23;7.50;99.90
13898;DHT22;7019;50.766;4.474;2023-03-15T11:26:51;7.70;99.90
13898;DHT22;7019;50.766;4.474;2023-03-15T11:29:23;7.90;99.90
13898;DHT22;7019;50.766;4.474;2023-03-15T11:31:51;8.00;99.90
13898;DHT22;7019;50.766;4.474;2023-03-15T11:34:26;8.10;99.90
13898;DHT22;7019;50.766;4.474;2023-03-15T11:36:59;8.10;99.90
13898;DHT22;7019;50.766;4.474;2023-03-15T11:39:35;8.10;99.90
13898;DHT22;7019;50.766;4.474;2023-03-15T11:42:08;8.00;99.90
13898;DHT22;7019;50.766;4.474;2023-03-15T11:44:38;8.20;99.90
13898;DHT22;7019;50.766;4.474;2023-03-15T11:47:11;8.30;99.90
13898;DHT22;7019;50.766;4.474;2023-03-15T11:49:45;8.00;99.90
13898;DHT22;7019;50.766;4.474;2023-03-15T11:52:15;8.00;99.90
13898;DHT22;7019;50.766;4.474;2023-03-15T11:54:45;8.00;99.90
13898;DHT22;7019;50.766;4.474;2023-03-15T11:57:34;7.90;99.90
13898;DHT22;7019;50.766;4.474;2023-03-15T12:00:16;7.70;99.90
13898;DHT22;7019;50.766;4.474;2023-03-15T12:02:48;7.60;99.90
13898;DHT22;7019;50.766;4.474;2023-03-15T12:05:43;7.50;99.90
13898;DHT22;7019;50.766;4.474;2023-03-15T12:08:22;7.60;99.90
13898;DHT22;7019;50.766;4.474;2023-03-15T12:10:52;7.90;99.90
13898;DHT22;7019;50.766;4.474;2023-03-15T12:13:23;8.00;99.90
13898;DHT22;7019;50.766;4.474;2023-03-15T12:15:50;8.00;99.90
13898;DHT22;7019;50.766;4.474;2023-03-15T12:18:39;8.00;99.90
13898;DHT22;7019;50.766;4.474;2023-03-15T12:21:30;8.10;99.90
13898;DHT22;7019;50.766;4.474;2023-03-15T12:24:00;8.00;99.90
13898;DHT22;7019;50.766;4.474;2023-03-15T12:26:48;8.00;99.90
13898;DHT22;7019;50.766;4.474;2023-03-15T12:29:21;8.00;99.90
13898;DHT22;7019;50.766;4.474;2023-03-15T12:31:55;8.20;99.90
13898;DHT22;7019;50.766;4.474;2023-03-15T12:34:27;8.40;99.90
13898;DHT22;7019;50.766;4.474;2023-03-15T12:37:00;8.40;99.90
13898;DHT22;7019;50.766;4.474;2023-03-15T12:39:41;8.20;99.90
13898;DHT22;7019;50.766;4.474;2023-03-15T12:45:38;8.00;99.90
13898;DHT22;7019;50.766;4.474;2023-03-15T12:48:20;8.00;99.90
13898;DHT22;7019;50.766;4.474;2023-03-15T12:51:09;8.00;99.90
13898;DHT22;7019;50.766;4.474;2023-03-15T12:53:56;8.20;99.90
13898;DHT22;7019;50.766;4.474;2023-03-15T12:56:35;8.20;99.90
13898;DHT22;7019;50.766;4.474;2023-03-15T12:59:16;8.30;99.90
13898;DHT22;7019;50.766;4.474;2023-03-15T13:01:45;8.40;99.90
13898;DHT22;7019;50.766;4.474;2023-03-15T13:04:13;8.50;99.90
13898;DHT22;7019;50.766;4.474;2023-03-15T13:06:54;8.50;99.90
13898;DHT22;7019;50.766;4.474;2023-03-15T13:12:20;8.60;99.90
13898;DHT22;7019;50.766;4.474;2023-03-15T13:14:53;8.80;99.90
13898;DHT22;7019;50.766;4.474;2023-03-15T13:17:34;9.00;99.90
13898;DHT22;7019;50.766;4.474;2023-03-15T13:20:28;9.20;99.90
13898;DHT22;7019;50.766;4.474;2023-03-15T13:23:04;9.10;99.90
13898;DHT22;7019;50.766;4.474;2023-03-15T13:25:42;8.80;99.90
13898;DHT22;7019;50.766;4.474;2023-03-15T13:28:16;8.90;99.90
13898;DHT22;7019;50.766;4.474;2023-03-15T13:30:48;8.80;99.90
13898;DHT22;7019;50.766;4.474;2023-03-15T13:33:22;9.00;99.90
13898;DHT22;7019;50.766;4.474;2023-03-15T13:35:55;9.30;99.90
13898;DHT22;7019;50.766;4.474;2023-03-15T13:38:30;9.50;99.90
13898;DHT22;7019;50.766;4.474;2023-03-15T13:40:59;9.60;99.90
13898;DHT22;7019;50.766;4.474;2023-03-15T13:43:29;9.40;99.90
13898;DHT22;7019;50.766;4.474;2023-03-15T13:45:57;9.30;99.90
13898;DHT22;7019;50.766;4.474;2023-03-15T13:48:31;9.50;99.90
13898;DHT22;7019;50.766;4.474;2023-03-15T13:51:03;9.70;99.90
13898;DHT22;7019;50.766;4.474;2023-03-15T13:53:32;9.60;99.90
13898;DHT22;7019;50.766;4.474;2023-03-15T13:56:00;9.50;99.90
13898;DHT22;7019;50.766;4.474;2023-03-15T13:58:27;9.60;99.90
13898;DHT22;7019;50.766;4.474;2023-03-15T14:00:57;9.70;99.90
13898;DHT22;7019;50.766;4.474;2023-03-15T14:03:28;9.70;99.90
13898;DHT22;7019;50.766;4.474;2023-03-15T14:05:56;9.70;99.90
13898;DHT22;7019;50.766;4.474;2023-03-15T14:08:26;9.90;99.90
13898;DHT22;7019;50.766;4.474;2023-03-15T14:11:03;10.00;99.90
13898;DHT22;7019;50.766;4.474;2023-03-15T14:13:32;9.80;99.90
13898;DHT22;7019;50.766;4.474;2023-03-15T14:16:02;9.70;99.90
13898;DHT22;7019;50.766;4.474;2023-03-15T14:18:32;9.50;99.90
13898;DHT22;7019;50.766;4.474;2023-03-15T14:21:02;9.40;99.90
13898;DHT22;7019;50.766;4.474;2023-03-15T14:23:31;9.10;99.90
13898;DHT22;7019;50.766;4.474;2023-03-15T14:26:11;9.10;99.90
13898;DHT22;7019;50.766;4.474;2023-03-15T14:28:40;9.20;99.90
13898;DHT22;7019;50.766;4.474;2023-03-15T14:31:07;9.20;99.90
13898;DHT22;7019;50.766;4.474;2023-03-15T14:33:40;9.30;99.90
13898;DHT22;7019;50.766;4.474;2023-03-15T14:36:21;9.30;99.90
13898;DHT22;7019;50.766;4.474;2023-03-15T14:38:51;9.10;99.90
13898;DHT22;7019;50.766;4.474;2023-03-15T14:41:23;9.20;99.90
13898;DHT22;7019;50.766;4.474;2023-03-15T14:43:58;9.10;99.90
13898;DHT22;7019;50.766;4.474;2023-03-15T14:46:26;9.10;99.90
13898;DHT22;7019;50.766;4.474;2023-03-15T14:48:54;9.00;99.90
13898;DHT22;7019;50.766;4.474;2023-03-15T14:51:22;9.00;99.90
13898;DHT22;7019;50.766;4.474;2023-03-15T14:53:51;9.20;99.90
13898;DHT22;7019;50.766;4.474;2023-03-15T14:56:21;9.20;99.90
13898;DHT22;7019;50.766;4.474;2023-03-15T14:58:49;9.30;99.90
13898;DHT22;7019;50.766;4.474;2023-03-15T15:01:21;9.10;99.90
13898;DHT22;7019;50.766;4.474;2023-03-15T15:03:55;9.00;99.90
13898;DHT22;7019;50.766;4.474;2023-03-15T15:06:24;8.80;99.90
13898;DHT22;7019;50.766;4.474;2023-03-15T15:08:55;8.70;99.90
13898;DHT22;7019;50.766;4.474;2023-03-15T15:11:23;8.60;99.90
13898;DHT22;7019;50.766;4.474;2023-03-15T15:13:50;8.60;99.90
13898;DHT22;7019;50.766;4.474;2023-03-15T15:16:17;8.60;99.90
13898;DHT22;7019;50.766;4.474;2023-03-15T15:18:44;8.70;99.90
13898;DHT22;7019;50.766;4.474;2023-03-15T15:21:17;8.70;99.90
13898;DHT22;7019;50.766;4.474;2023-03-15T15:23:45;8.70;99.90
13898;DHT22;7019;50.766;4.474;2023-03-15T15:26:16;8.70;99.90
13898;DHT22;7019;50.766;4.474;2023-03-15T15:28:44;8.60;99.90
13898;DHT22;7019;50.766;4.474;2023-03-15T15:31:15;8.60;99.90
13898;DHT22;7019;50.766;4.474;2023-03-15T15:33:42;8.70;99.90
13898;DHT22;7019;50.766;4.474;2023-03-15T15:36:13;8.70;99.90
13898;DHT22;7019;50.766;4.474;2023-03-15T15:38:42;8.70;99.90
13898;DHT22;7019;50.766;4.474;2023-03-15T15:41:12;8.80;99.90
13898;DHT22;7019;50.766;4.474;2023-03-15T15:43:41;8.70;99.90
13898;DHT22;7019;50.766;4.474;2023-03-15T15:46:09;8.70;99.90
13898;DHT22;7019;50.766;4.474;2023-03-15T15:48:37;8.60;99.90
13898;DHT22;7019;50.766;4.474;2023-03-15T15:51:17;8.60;99.90
13898;DHT22;7019;50.766;4.474;2023-03-15T15:53:45;8.50;99.90
13898;DHT22;7019;50.766;4.474;2023-03-15T15:56:12;8.50;99.90
13898;DHT22;7019;50.766;4.474;2023-03-15T15:58:41;8.60;99.90
13898;DHT22;7019;50.766;4.474;2023-03-15T16:01:11;8.60;99.90
13898;DHT22;7019;50.766;4.474;2023-03-15T16:03:38;8.60;99.90
13898;DHT22;7019;50.766;4.474;2023-03-15T16:06:06;8.60;99.90
13898;DHT22;7019;50.766;4.474;2023-03-15T16:08:41;8.50;99.90
13898;DHT22;7019;50.766;4.474;2023-03-15T16:11:10;8.50;99.90
13898;DHT22;7019;50.766;4.474;2023-03-15T16:13:39;8.50;99.90
13898;DHT22;7019;50.766;4.474;2023-03-15T16:16:10;8.40;99.90
13898;DHT22;7019;50.766;4.474;2023-03-15T16:18:38;8.40;99.90
13898;DHT22;7019;50.766;4.474;2023-03-15T16:21:05;8.30;99.90
13898;DHT22;7019;50.766;4.474;2023-03-15T16:23:33;8.30;99.90
13898;DHT22;7019;50.766;4.474;2023-03-15T16:26:02;8.20;99.90